sensor_id;sensor_type;location;lat;lon;timestamp;temperature;humidity
1011;DHT22;494;48.744;10.106;2022-12-18T00:00:24;-3.70;37.90
1011;DHT22;494;48.744;10.106;2022-12-18T00:02:58;-3.70;38.00
1011;DHT22;494;48.744;10.106;2022-12-18T00:05:28;-3.80;38.30
1011;DHT22;494;48.744;10.106;2022-12-18T00:08:01;-3.60;38.50
1011;DHT22;494;48.744;10.106;2022-12-18T00:10:37;-3.80;38.50
1011;DHT22;494;48.744;10.106;2022-12-18T00:13:09;-3.80;38.60
1011;DHT22;494;48.744;10.106;2022-12-18T00:15:39;-3.80;38.60
1011;DHT22;494;48.744;10.106;2022-12-18T00:18:12;-3.80;38.60
1011;DHT22;494;48.744;10.106;2022-12-18T00:20:48;-3.80;38.60
1011;DHT22;494;48.744;10.106;2022-12-18T00:23:24;-3.80;38.60
1011;DHT22;494;48.744;10.106;2022-12-18T00:25:58;-3.70;38.80
1011;DHT22;494;48.744;10.106;2022-12-18T00:28:31;-3.60;38.60
1011;DHT22;494;48.744;10.106;2022-12-18T00:31:03;-3.50;38.50
1011;DHT22;494;48.744;10.106;2022-12-18T00:33:37;-3.40;38.30
1011;DHT22;494;48.744;10.106;2022-12-18T00:36:12;-3.40;38.00
1011;DHT22;494;48.744;10.106;2022-12-18T00:38:45;-3.50;38.00
1011;DHT22;494;48.744;10.106;2022-12-18T00:41:17;-3.50;38.00
1011;DHT22;494;48.744;10.106;2022-12-18T00:44:02;-3.40;37.90
1011;DHT22;494;48.744;10.106;2022-12-18T00:46:36;-3.40;37.60
1011;DHT22;494;48.744;10.106;2022-12-18T00:49:08;-3.60;38.00
1011;DHT22;494;48.744;10.106;2022-12-18T00:51:41;-3.50;38.20
1011;DHT22;494;48.744;10.106;2022-12-18T00:54:11;-3.50;38.20
1011;DHT22;494;48.744;10.106;2022-12-18T00:56:44;-3.20;38.20
1011;DHT22;494;48.744;10.106;2022-12-18T00:59:17;-3.40;37.90
1011;DHT22;494;48.744;10.106;2022-12-18T01:01:47;-3.50;37.90
1011;DHT22;494;48.744;10.106;2022-12-18T01:04:20;-3.40;37.90
1011;DHT22;494;48.744;10.106;2022-12-18T01:06:49;-3.40;38.00
1011;DHT22;494;48.744;10.106;2022-12-18T01:09:21;-3.40;37.90
1011;DHT22;494;48.744;10.106;2022-12-18T01:11:51;-3.30;37.80
1011;DHT22;494;48.744;10.106;2022-12-18T01:14:23;-3.30;37.60
1011;DHT22;494;48.744;10.106;2022-12-18T01:16:53;-3.30;37.40
1011;DHT22;494;48.744;10.106;2022-12-18T01:19:25;-3.30;37.30
1011;DHT22;494;48.744;10.106;2022-12-18T01:21:57;-3.40;37.30
1011;DHT22;494;48.744;10.106;2022-12-18T01:24:29;-3.50;37.40
1011;DHT22;494;48.744;10.106;2022-12-18T01:27:03;-3.50;37.50
1011;DHT22;494;48.744;10.106;2022-12-18T01:29:32;-3.50;37.60
1011;DHT22;494;48.744;10.106;2022-12-18T01:32:02;-3.60;37.40
1011;DHT22;494;48.744;10.106;2022-12-18T01:34:35;-3.60;37.70
1011;DHT22;494;48.744;10.106;2022-12-18T01:37:06;-3.70;37.70
1011;DHT22;494;48.744;10.106;2022-12-18T01:39:36;-3.70;37.80
1011;DHT22;494;48.744;10.106;2022-12-18T01:42:12;-3.60;37.80
1011;DHT22;494;48.744;10.106;2022-12-18T01:45:02;-3.70;37.70
1011;DHT22;494;48.744;10.106;2022-12-18T01:47:40;-3.80;37.80
1011;DHT22;494;48.744;10.106;2022-12-18T01:50:18;-3.80;37.90
1011;DHT22;494;48.744;10.106;2022-12-18T01:52:52;-3.60;38.10
1011;DHT22;494;48.744;10.106;2022-12-18T01:55:27;-4.00;38.30
1011;DHT22;494;48.744;10.106;2022-12-18T01:58:01;-4.00;38.30
1011;DHT22;494;48.744;10.106;2022-12-18T02:00:31;-4.00;38.00
1011;DHT22;494;48.744;10.106;2022-12-18T02:03:02;-4.10;38.40
1011;DHT22;494;48.744;10.106;2022-12-18T02:05:41;-4.10;38.50
1011;DHT22;494;48.744;10.106;2022-12-18T02:08:19;-4.30;38.80
1011;DHT22;494;48.744;10.106;2022-12-18T02:11:05;-4.30;39.40
1011;DHT22;494;48.744;10.106;2022-12-18T02:13:48;-4.50;39.40
1011;DHT22;494;48.744;10.106;2022-12-18T02:16:29;-4.50;39.50
1011;DHT22;494;48.744;10.106;2022-12-18T02:19:15;-4.40;39.30
1011;DHT22;494;48.744;10.106;2022-12-18T02:22:26;-4.60;38.80
1011;DHT22;494;48.744;10.106;2022-12-18T02:25:15;-4.80;39.10
1011;DHT22;494;48.744;10.106;2022-12-18T02:27:56;-4.90;39.60
1011;DHT22;494;48.744;10.106;2022-12-18T02:30:35;-5.00;39.60
1011;DHT22;494;48.744;10.106;2022-12-18T02:33:09;-5.10;40.20
1011;DHT22;494;48.744;10.106;2022-12-18T02:35:41;-5.10;40.50
1011;DHT22;494;48.744;10.106;2022-12-18T02:38:15;-5.20;40.90
1011;DHT22;494;48.744;10.106;2022-12-18T02:40:51;-5.20;41.30
1011;DHT22;494;48.744;10.106;2022-12-18T02:43:24;-5.20;41.60
1011;DHT22;494;48.744;10.106;2022-12-18T02:45:58;-5.20;41.70
1011;DHT22;494;48.744;10.106;2022-12-18T02:48:32;-5.10;41.80
1011;DHT22;494;48.744;10.106;2022-12-18T02:51:10;-5.00;41.80
1011;DHT22;494;48.744;10.106;2022-12-18T02:53:52;-4.90;41.80
1011;DHT22;494;48.744;10.106;2022-12-18T02:56:34;-5.00;41.80
1011;DHT22;494;48.744;10.106;2022-12-18T02:59:14;-4.90;42.20
1011;DHT22;494;48.744;10.106;2022-12-18T03:01:53;-4.80;41.90
1011;DHT22;494;48.744;10.106;2022-12-18T03:04:31;-4.70;41.90
1011;DHT22;494;48.744;10.106;2022-12-18T03:07:10;-4.50;42.10
1011;DHT22;494;48.744;10.106;2022-12-18T03:09:48;-4.70;42.30
1011;DHT22;494;48.744;10.106;2022-12-18T03:12:27;-4.70;42.50
1011;DHT22;494;48.744;10.106;2022-12-18T03:15:10;-4.70;42.40
1011;DHT22;494;48.744;10.106;2022-12-18T03:17:48;-4.70;42.90
1011;DHT22;494;48.744;10.106;2022-12-18T03:20:22;-4.60;43.00
1011;DHT22;494;48.744;10.106;2022-12-18T03:22:59;-4.60;43.00
1011;DHT22;494;48.744;10.106;2022-12-18T03:25:35;-4.60;43.00
1011;DHT22;494;48.744;10.106;2022-12-18T03:28:14;-4.50;43.20
1011;DHT22;494;48.744;10.106;2022-12-18T03:30:57;-4.50;43.20
1011;DHT22;494;48.744;10.106;2022-12-18T03:33:38;-4.50;43.40
1011;DHT22;494;48.744;10.106;2022-12-18T03:36:11;-4.50;43.90
1011;DHT22;494;48.744;10.106;2022-12-18T03:38:41;-4.40;43.90
1011;DHT22;494;48.744;10.106;2022-12-18T03:41:19;-4.30;43.90
1011;DHT22;494;48.744;10.106;2022-12-18T03:44:00;-4.30;43.80
1011;DHT22;494;48.744;10.106;2022-12-18T03:46:44;-4.30;44.10
1011;DHT22;494;48.744;10.106;2022-12-18T03:49:24;-4.20;44.10
1011;DHT22;494;48.744;10.106;2022-12-18T03:52:04;-4.10;43.90
1011;DHT22;494;48.744;10.106;2022-12-18T03:54:37;-4.10;43.80
1011;DHT22;494;48.744;10.106;2022-12-18T03:57:13;-4.30;44.10
1011;DHT22;494;48.744;10.106;2022-12-18T03:59:51;-4.30;45.30
1011;DHT22;494;48.744;10.106;2022-12-18T04:02:26;-4.20;44.80
1011;DHT22;494;48.744;10.106;2022-12-18T04:04:59;-4.10;45.30
1011;DHT22;494;48.744;10.106;2022-12-18T04:07:33;-4.10;44.20
1011;DHT22;494;48.744;10.106;2022-12-18T04:10:07;-4.10;44.10
1011;DHT22;494;48.744;10.106;2022-12-18T04:12:41;-4.30;44.70
1011;DHT22;494;48.744;10.106;2022-12-18T04:15:13;-4.20;45.00
1011;DHT22;494;48.744;10.106;2022-12-18T04:17:47;-4.10;45.00
1011;DHT22;494;48.744;10.106;2022-12-18T04:20:18;-4.00;44.70
1011;DHT22;494;48.744;10.106;2022-12-18T04:22:49;-3.90;44.40
1011;DHT22;494;48.744;10.106;2022-12-18T04:25:19;-3.90;44.40
1011;DHT22;494;48.744;10.106;2022-12-18T04:27:49;-3.90;44.40
1011;DHT22;494;48.744;10.106;2022-12-18T04:30:19;-3.70;44.30
1011;DHT22;494;48.744;10.106;2022-12-18T04:32:50;-3.60;44.00
1011;DHT22;494;48.744;10.106;2022-12-18T04:35:25;-3.60;43.50
1011;DHT22;494;48.744;10.106;2022-12-18T04:37:54;-3.70;43.70
1011;DHT22;494;48.744;10.106;2022-12-18T04:40:35;-3.70;44.10
1011;DHT22;494;48.744;10.106;2022-12-18T04:43:04;-3.70;44.10
1011;DHT22;494;48.744;10.106;2022-12-18T04:45:36;-3.60;44.00
1011;DHT22;494;48.744;10.106;2022-12-18T04:48:08;-3.60;43.70
1011;DHT22;494;48.744;10.106;2022-12-18T04:50:38;-3.60;43.50
1011;DHT22;494;48.744;10.106;2022-12-18T04:53:08;-3.50;43.80
1011;DHT22;494;48.744;10.106;2022-12-18T04:55:40;-3.60;43.70
1011;DHT22;494;48.744;10.106;2022-12-18T04:58:10;-3.60;43.80
1011;DHT22;494;48.744;10.106;2022-12-18T05:00:39;-3.60;43.90
1011;DHT22;494;48.744;10.106;2022-12-18T05:03:14;-3.50;43.80
1011;DHT22;494;48.744;10.106;2022-12-18T05:05:44;-3.60;43.70
1011;DHT22;494;48.744;10.106;2022-12-18T05:08:13;-3.70;44.40
1011;DHT22;494;48.744;10.106;2022-12-18T05:10:43;-3.70;44.80
1011;DHT22;494;48.744;10.106;2022-12-18T05:13:19;-3.60;44.80
1011;DHT22;494;48.744;10.106;2022-12-18T05:15:52;-3.70;44.50
1011;DHT22;494;48.744;10.106;2022-12-18T05:18:23;-3.70;44.70
1011;DHT22;494;48.744;10.106;2022-12-18T05:20:53;-3.70;44.70
1011;DHT22;494;48.744;10.106;2022-12-18T05:23:25;-3.70;44.90
1011;DHT22;494;48.744;10.106;2022-12-18T05:25:56;-3.70;44.80
1011;DHT22;494;48.744;10.106;2022-12-18T05:28:31;-3.70;44.80
1011;DHT22;494;48.744;10.106;2022-12-18T05:31:05;-3.70;44.80
1011;DHT22;494;48.744;10.106;2022-12-18T05:33:45;-3.70;44.80
1011;DHT22;494;48.744;10.106;2022-12-18T05:36:15;-3.70;44.90
1011;DHT22;494;48.744;10.106;2022-12-18T05:38:45;-3.70;44.80
1011;DHT22;494;48.744;10.106;2022-12-18T05:41:16;-3.70;44.80
1011;DHT22;494;48.744;10.106;2022-12-18T05:43:49;-3.80;44.70
1011;DHT22;494;48.744;10.106;2022-12-18T05:46:24;-3.90;44.90
1011;DHT22;494;48.744;10.106;2022-12-18T05:48:58;-4.10;45.60
1011;DHT22;494;48.744;10.106;2022-12-18T05:51:29;-4.10;46.20
1011;DHT22;494;48.744;10.106;2022-12-18T05:53:59;-4.10;46.10
1011;DHT22;494;48.744;10.106;2022-12-18T05:56:30;-4.10;46.60
1011;DHT22;494;48.744;10.106;2022-12-18T05:59:00;-4.30;46.80
1011;DHT22;494;48.744;10.106;2022-12-18T06:01:29;-4.00;47.00
1011;DHT22;494;48.744;10.106;2022-12-18T06:04:01;-4.20;47.20
1011;DHT22;494;48.744;10.106;2022-12-18T06:06:32;-4.20;47.10
1011;DHT22;494;48.744;10.106;2022-12-18T06:09:03;-4.20;47.00
1011;DHT22;494;48.744;10.106;2022-12-18T06:11:37;-4.20;47.00
1011;DHT22;494;48.744;10.106;2022-12-18T06:14:10;-4.20;47.00
1011;DHT22;494;48.744;10.106;2022-12-18T06:16:40;-4.10;46.80
1011;DHT22;494;48.744;10.106;2022-12-18T06:19:16;-3.90;46.40
1011;DHT22;494;48.744;10.106;2022-12-18T06:21:49;-4.00;45.90
1011;DHT22;494;48.744;10.106;2022-12-18T06:24:20;-4.00;45.50
1011;DHT22;494;48.744;10.106;2022-12-18T06:26:50;-4.10;45.40
1011;DHT22;494;48.744;10.106;2022-12-18T06:29:22;-4.10;45.60
1011;DHT22;494;48.744;10.106;2022-12-18T06:31:53;-4.00;45.30
1011;DHT22;494;48.744;10.106;2022-12-18T06:34:26;-4.00;45.20
1011;DHT22;494;48.744;10.106;2022-12-18T06:37:01;-4.00;44.90
1011;DHT22;494;48.744;10.106;2022-12-18T06:39:31;-4.10;44.80
1011;DHT22;494;48.744;10.106;2022-12-18T06:42:08;-4.00;44.50
1011;DHT22;494;48.744;10.106;2022-12-18T06:44:39;-4.00;44.60
1011;DHT22;494;48.744;10.106;2022-12-18T06:47:08;-4.00;44.60
1011;DHT22;494;48.744;10.106;2022-12-18T06:49:39;-4.10;44.50
1011;DHT22;494;48.744;10.106;2022-12-18T06:52:09;-4.20;44.80
1011;DHT22;494;48.744;10.106;2022-12-18T06:54:40;-4.20;44.60
1011;DHT22;494;48.744;10.106;2022-12-18T06:57:10;-4.20;44.90
1011;DHT22;494;48.744;10.106;2022-12-18T06:59:40;-4.30;45.20
1011;DHT22;494;48.744;10.106;2022-12-18T07:02:12;-4.30;46.10
1011;DHT22;494;48.744;10.106;2022-12-18T07:04:43;-4.30;45.50
1011;DHT22;494;48.744;10.106;2022-12-18T07:07:13;-4.40;45.70
1011;DHT22;494;48.744;10.106;2022-12-18T07:09:44;-4.30;45.90
1011;DHT22;494;48.744;10.106;2022-12-18T07:12:16;-4.20;45.80
1011;DHT22;494;48.744;10.106;2022-12-18T07:14:45;-4.10;45.70
1011;DHT22;494;48.744;10.106;2022-12-18T07:17:15;-3.90;45.20
1011;DHT22;494;48.744;10.106;2022-12-18T07:19:48;-3.80;44.70
1011;DHT22;494;48.744;10.106;2022-12-18T07:22:17;-3.90;44.40
1011;DHT22;494;48.744;10.106;2022-12-18T07:24:48;-4.00;44.30
1011;DHT22;494;48.744;10.106;2022-12-18T07:27:20;-4.30;45.20
1011;DHT22;494;48.744;10.106;2022-12-18T07:29:50;-4.30;45.90
1011;DHT22;494;48.744;10.106;2022-12-18T07:32:23;-4.10;46.00
1011;DHT22;494;48.744;10.106;2022-12-18T07:34:55;-4.20;45.80
1011;DHT22;494;48.744;10.106;2022-12-18T07:37:25;-4.20;46.10
1011;DHT22;494;48.744;10.106;2022-12-18T07:39:55;-4.10;46.20
1011;DHT22;494;48.744;10.106;2022-12-18T07:42:27;-4.20;45.90
1011;DHT22;494;48.744;10.106;2022-12-18T07:45:01;-4.10;46.20
1011;DHT22;494;48.744;10.106;2022-12-18T07:47:35;-3.90;46.10
1011;DHT22;494;48.744;10.106;2022-12-18T07:50:07;-3.90;45.90
1011;DHT22;494;48.744;10.106;2022-12-18T07:52:39;-3.80;45.30
1011;DHT22;494;48.744;10.106;2022-12-18T07:55:10;-3.60;45.20
1011;DHT22;494;48.744;10.106;2022-12-18T07:57:40;-3.50;44.70
1011;DHT22;494;48.744;10.106;2022-12-18T08:00:26;-3.40;44.00
1011;DHT22;494;48.744;10.106;2022-12-18T08:02:59;-3.50;43.70
1011;DHT22;494;48.744;10.106;2022-12-18T08:05:30;-3.50;43.50
1011;DHT22;494;48.744;10.106;2022-12-18T08:08:01;-3.60;43.40
1011;DHT22;494;48.744;10.106;2022-12-18T08:10:31;-3.60;43.60
1011;DHT22;494;48.744;10.106;2022-12-18T08:13:01;-3.70;44.40
1011;DHT22;494;48.744;10.106;2022-12-18T08:15:31;-3.50;44.60
1011;DHT22;494;48.744;10.106;2022-12-18T08:18:03;-3.40;44.00
1011;DHT22;494;48.744;10.106;2022-12-18T08:20:42;-3.40;43.90
1011;DHT22;494;48.744;10.106;2022-12-18T08:23:11;-3.50;43.90
1011;DHT22;494;48.744;10.106;2022-12-18T08:25:44;-3.50;44.20
1011;DHT22;494;48.744;10.106;2022-12-18T08:28:14;-3.40;43.90
1011;DHT22;494;48.744;10.106;2022-12-18T08:30:44;-3.30;43.60
1011;DHT22;494;48.744;10.106;2022-12-18T08:33:16;-3.40;43.20
1011;DHT22;494;48.744;10.106;2022-12-18T08:35:47;-3.50;43.60
1011;DHT22;494;48.744;10.106;2022-12-18T08:38:16;-3.50;44.20
1011;DHT22;494;48.744;10.106;2022-12-18T08:40:45;-3.40;44.20
1011;DHT22;494;48.744;10.106;2022-12-18T08:43:14;-3.30;44.00
1011;DHT22;494;48.744;10.106;2022-12-18T08:46:00;-3.50;43.80
1011;DHT22;494;48.744;10.106;2022-12-18T08:48:29;-3.20;44.10
1011;DHT22;494;48.744;10.106;2022-12-18T08:50:59;-3.20;44.10
1011;DHT22;494;48.744;10.106;2022-12-18T08:53:28;-3.30;44.30
1011;DHT22;494;48.744;10.106;2022-12-18T08:56:01;-3.20;44.20
1011;DHT22;494;48.744;10.106;2022-12-18T08:58:30;-3.10;43.90
1011;DHT22;494;48.744;10.106;2022-12-18T09:01:00;-3.10;43.00
1011;DHT22;494;48.744;10.106;2022-12-18T09:03:30;-3.00;43.10
1011;DHT22;494;48.744;10.106;2022-12-18T09:06:01;-3.10;43.20
1011;DHT22;494;48.744;10.106;2022-12-18T09:08:30;-3.10;43.10
1011;DHT22;494;48.744;10.106;2022-12-18T09:10:58;-3.10;42.90
1011;DHT22;494;48.744;10.106;2022-12-18T09:13:27;-2.90;43.00
1011;DHT22;494;48.744;10.106;2022-12-18T09:15:56;-3.00;42.90
1011;DHT22;494;48.744;10.106;2022-12-18T09:18:25;-2.90;42.80
1011;DHT22;494;48.744;10.106;2022-12-18T09:20:54;-2.90;43.30
1011;DHT22;494;48.744;10.106;2022-12-18T09:23:24;-2.90;42.80
1011;DHT22;494;48.744;10.106;2022-12-18T09:25:58;-3.00;42.70
1011;DHT22;494;48.744;10.106;2022-12-18T09:28:27;-3.00;42.90
1011;DHT22;494;48.744;10.106;2022-12-18T09:30:56;-2.70;43.20
1011;DHT22;494;48.744;10.106;2022-12-18T09:33:25;-2.80;43.00
1011;DHT22;494;48.744;10.106;2022-12-18T09:35:53;-2.60;42.70
1011;DHT22;494;48.744;10.106;2022-12-18T09:38:24;-2.70;41.70
1011;DHT22;494;48.744;10.106;2022-12-18T09:40:55;-2.80;42.30
1011;DHT22;494;48.744;10.106;2022-12-18T09:43:45;-2.80;42.50
1011;DHT22;494;48.744;10.106;2022-12-18T09:46:23;-2.70;42.30
1011;DHT22;494;48.744;10.106;2022-12-18T09:48:58;-2.60;42.60
1011;DHT22;494;48.744;10.106;2022-12-18T09:51:33;-2.70;42.30
1011;DHT22;494;48.744;10.106;2022-12-18T09:54:14;-2.60;42.20
1011;DHT22;494;48.744;10.106;2022-12-18T09:56:48;-2.60;42.20
1011;DHT22;494;48.744;10.106;2022-12-18T09:59:22;-2.50;42.20
1011;DHT22;494;48.744;10.106;2022-12-18T10:01:54;-2.50;42.00
1011;DHT22;494;48.744;10.106;2022-12-18T10:04:23;-2.40;41.90
1011;DHT22;494;48.744;10.106;2022-12-18T10:06:58;-2.30;41.70
1011;DHT22;494;48.744;10.106;2022-12-18T10:09:43;-2.30;41.10
1011;DHT22;494;48.744;10.106;2022-12-18T10:12:23;-2.30;41.30
1011;DHT22;494;48.744;10.106;2022-12-18T10:15:00;-2.40;40.80
1011;DHT22;494;48.744;10.106;2022-12-18T10:17:39;-2.40;41.10
1011;DHT22;494;48.744;10.106;2022-12-18T10:20:17;-2.30;41.20
1011;DHT22;494;48.744;10.106;2022-12-18T10:22:57;-2.30;41.40
1011;DHT22;494;48.744;10.106;2022-12-18T10:25:41;-2.40;41.30
1011;DHT22;494;48.744;10.106;2022-12-18T10:28:19;-2.40;41.60
1011;DHT22;494;48.744;10.106;2022-12-18T10:30:49;-2.60;42.00
1011;DHT22;494;48.744;10.106;2022-12-18T10:33:20;-2.50;42.30
1011;DHT22;494;48.744;10.106;2022-12-18T10:35:50;-2.40;41.80
1011;DHT22;494;48.744;10.106;2022-12-18T10:38:25;-2.20;42.00
1011;DHT22;494;48.744;10.106;2022-12-18T10:40:58;-2.10;41.90
1011;DHT22;494;48.744;10.106;2022-12-18T10:43:30;-1.80;41.20
1011;DHT22;494;48.744;10.106;2022-12-18T10:46:19;-1.90;40.70
1011;DHT22;494;48.744;10.106;2022-12-18T10:48:53;-1.90;40.60
1011;DHT22;494;48.744;10.106;2022-12-18T10:51:27;-2.00;40.10
1011;DHT22;494;48.744;10.106;2022-12-18T10:53:59;-1.70;40.40
1011;DHT22;494;48.744;10.106;2022-12-18T10:56:35;-1.90;39.80
1011;DHT22;494;48.744;10.106;2022-12-18T10:59:06;-1.70;40.00
1011;DHT22;494;48.744;10.106;2022-12-18T11:01:48;-1.70;39.50
1011;DHT22;494;48.744;10.106;2022-12-18T11:04:21;-1.60;39.00
1011;DHT22;494;48.744;10.106;2022-12-18T11:07:08;-1.60;38.80
1011;DHT22;494;48.744;10.106;2022-12-18T11:09:39;-1.50;38.70
1011;DHT22;494;48.744;10.106;2022-12-18T11:12:18;-1.70;38.80
1011;DHT22;494;48.744;10.106;2022-12-18T11:14:50;-1.80;39.30
1011;DHT22;494;48.744;10.106;2022-12-18T11:17:23;-1.80;39.50
1011;DHT22;494;48.744;10.106;2022-12-18T11:19:57;-1.90;39.60
1011;DHT22;494;48.744;10.106;2022-12-18T11:22:29;-2.00;40.10
1011;DHT22;494;48.744;10.106;2022-12-18T11:25:02;-2.00;40.80
1011;DHT22;494;48.744;10.106;2022-12-18T11:27:56;-2.10;41.00
1011;DHT22;494;48.744;10.106;2022-12-18T11:30:29;-2.10;41.50
1011;DHT22;494;48.744;10.106;2022-12-18T11:33:03;-2.00;41.50
1011;DHT22;494;48.744;10.106;2022-12-18T11:35:43;-1.70;41.30
1011;DHT22;494;48.744;10.106;2022-12-18T11:38:21;-1.60;40.20
1011;DHT22;494;48.744;10.106;2022-12-18T11:40:56;-1.60;39.80
1011;DHT22;494;48.744;10.106;2022-12-18T11:43:33;-1.40;40.20
1011;DHT22;494;48.744;10.106;2022-12-18T11:46:10;-1.10;39.00
1011;DHT22;494;48.744;10.106;2022-12-18T11:48:49;-1.10;38.90
1011;DHT22;494;48.744;10.106;2022-12-18T11:51:29;-1.10;39.20
1011;DHT22;494;48.744;10.106;2022-12-18T11:54:11;-0.90;38.30
1011;DHT22;494;48.744;10.106;2022-12-18T11:56:45;-0.90;38.10
1011;DHT22;494;48.744;10.106;2022-12-18T11:59:26;-1.10;38.10
1011;DHT22;494;48.744;10.106;2022-12-18T12:02:11;-1.20;38.40
1011;DHT22;494;48.744;10.106;2022-12-18T12:05:10;-1.20;38.60
1011;DHT22;494;48.744;10.106;2022-12-18T12:07:54;-1.30;38.80
1011;DHT22;494;48.744;10.106;2022-12-18T12:10:34;-1.40;39.30
1011;DHT22;494;48.744;10.106;2022-12-18T12:13:23;-1.30;39.80
1011;DHT22;494;48.744;10.106;2022-12-18T12:16:12;-1.20;39.70
1011;DHT22;494;48.744;10.106;2022-12-18T12:18:53;-1.30;39.40
1011;DHT22;494;48.744;10.106;2022-12-18T12:21:36;-1.30;39.40
1011;DHT22;494;48.744;10.106;2022-12-18T12:24:25;-1.30;39.50
1011;DHT22;494;48.744;10.106;2022-12-18T12:27:07;-1.40;39.30
1011;DHT22;494;48.744;10.106;2022-12-18T12:29:52;-1.30;39.60
1011;DHT22;494;48.744;10.106;2022-12-18T12:32:48;-1.30;39.90
1011;DHT22;494;48.744;10.106;2022-12-18T12:35:35;-1.30;39.80
1011;DHT22;494;48.744;10.106;2022-12-18T12:38:14;-1.20;39.50
1011;DHT22;494;48.744;10.106;2022-12-18T12:40:49;-1.20;39.30
1011;DHT22;494;48.744;10.106;2022-12-18T12:43:34;-1.30;39.30
1011;DHT22;494;48.744;10.106;2022-12-18T12:46:18;-1.20;39.40
1011;DHT22;494;48.744;10.106;2022-12-18T12:48:56;-1.00;39.20
1011;DHT22;494;48.744;10.106;2022-12-18T12:51:29;-0.90;38.80
1011;DHT22;494;48.744;10.106;2022-12-18T12:54:04;-0.80;38.50
1011;DHT22;494;48.744;10.106;2022-12-18T12:56:44;-0.80;38.10
1011;DHT22;494;48.744;10.106;2022-12-18T12:59:27;-1.20;38.50
1011;DHT22;494;48.744;10.106;2022-12-18T13:02:04;-1.20;39.30
1011;DHT22;494;48.744;10.106;2022-12-18T13:04:49;-1.10;39.40
1011;DHT22;494;48.744;10.106;2022-12-18T13:07:26;-1.20;39.30
1011;DHT22;494;48.744;10.106;2022-12-18T13:10:24;-1.20;39.70
1011;DHT22;494;48.744;10.106;2022-12-18T13:13:03;-1.20;40.20
1011;DHT22;494;48.744;10.106;2022-12-18T13:15:37;-1.30;39.80
1011;DHT22;494;48.744;10.106;2022-12-18T13:18:18;-1.30;39.70
1011;DHT22;494;48.744;10.106;2022-12-18T13:20:50;-1.20;40.10
1011;DHT22;494;48.744;10.106;2022-12-18T13:23:32;-1.20;40.00
1011;DHT22;494;48.744;10.106;2022-12-18T13:26:33;-1.10;39.90
1011;DHT22;494;48.744;10.106;2022-12-18T13:29:03;-0.80;39.70
1011;DHT22;494;48.744;10.106;2022-12-18T13:34:30;-1.10;39.40
1011;DHT22;494;48.744;10.106;2022-12-18T13:37:39;-1.00;39.30
1011;DHT22;494;48.744;10.106;2022-12-18T13:43:33;-0.60;38.80
1011;DHT22;494;48.744;10.106;2022-12-18T13:46:27;-0.60;38.30
1011;DHT22;494;48.744;10.106;2022-12-18T13:49:00;-0.70;38.10
1011;DHT22;494;48.744;10.106;2022-12-18T13:51:33;-0.70;38.20
1011;DHT22;494;48.744;10.106;2022-12-18T13:54:18;-0.60;38.30
1011;DHT22;494;48.744;10.106;2022-12-18T13:56:50;-0.60;38.40
1011;DHT22;494;48.744;10.106;2022-12-18T13:59:20;-0.80;38.30
1011;DHT22;494;48.744;10.106;2022-12-18T14:01:53;-0.60;38.70
1011;DHT22;494;48.744;10.106;2022-12-18T14:04:26;-0.70;38.50
1011;DHT22;494;48.744;10.106;2022-12-18T14:06:58;-0.70;37.90
1011;DHT22;494;48.744;10.106;2022-12-18T14:09:35;-0.90;38.80
1011;DHT22;494;48.744;10.106;2022-12-18T14:12:06;-1.00;39.20
1011;DHT22;494;48.744;10.106;2022-12-18T14:15:01;-1.20;39.40
1011;DHT22;494;48.744;10.106;2022-12-18T14:17:31;-1.40;40.10
1011;DHT22;494;48.744;10.106;2022-12-18T14:20:01;-1.60;41.40
1011;DHT22;494;48.744;10.106;2022-12-18T14:22:30;-1.60;41.90
1011;DHT22;494;48.744;10.106;2022-12-18T14:25:16;-1.60;41.80
1011;DHT22;494;48.744;10.106;2022-12-18T14:27:49;-1.50;41.80
1011;DHT22;494;48.744;10.106;2022-12-18T14:30:25;-1.40;41.60
1011;DHT22;494;48.744;10.106;2022-12-18T14:33:05;-1.40;41.60
1011;DHT22;494;48.744;10.106;2022-12-18T14:35:38;-1.50;41.70
1011;DHT22;494;48.744;10.106;2022-12-18T14:38:20;-1.50;42.20
1011;DHT22;494;48.744;10.106;2022-12-18T14:40:59;-1.40;42.00
1011;DHT22;494;48.744;10.106;2022-12-18T14:43:33;-1.20;41.80
1011;DHT22;494;48.744;10.106;2022-12-18T14:46:04;-1.50;41.90
1011;DHT22;494;48.744;10.106;2022-12-18T14:48:39;-1.50;42.10
1011;DHT22;494;48.744;10.106;2022-12-18T14:51:16;-1.50;42.20
1011;DHT22;494;48.744;10.106;2022-12-18T14:53:48;-1.50;42.20
1011;DHT22;494;48.744;10.106;2022-12-18T14:56:25;-1.50;42.10
1011;DHT22;494;48.744;10.106;2022-12-18T14:58:58;-1.30;42.20
1011;DHT22;494;48.744;10.106;2022-12-18T15:01:30;-1.60;42.40
1011;DHT22;494;48.744;10.106;2022-12-18T15:04:03;-1.60;42.70
1011;DHT22;494;48.744;10.106;2022-12-18T15:06:35;-1.70;43.10
1011;DHT22;494;48.744;10.106;2022-12-18T15:09:22;-1.60;43.10
1011;DHT22;494;48.744;10.106;2022-12-18T15:11:57;-1.50;42.80
1011;DHT22;494;48.744;10.106;2022-12-18T15:14:33;-1.60;42.80
1011;DHT22;494;48.744;10.106;2022-12-18T15:17:06;-1.50;42.80
1011;DHT22;494;48.744;10.106;2022-12-18T15:19:44;-1.50;42.70
1011;DHT22;494;48.744;10.106;2022-12-18T15:22:18;-1.60;42.80
1011;DHT22;494;48.744;10.106;2022-12-18T15:24:50;-1.60;42.80
1011;DHT22;494;48.744;10.106;2022-12-18T15:27:27;-1.60;42.90
1011;DHT22;494;48.744;10.106;2022-12-18T15:30:22;-1.50;43.10
1011;DHT22;494;48.744;10.106;2022-12-18T15:32:55;-1.40;43.20
1011;DHT22;494;48.744;10.106;2022-12-18T15:35:45;-1.40;42.80
1011;DHT22;494;48.744;10.106;2022-12-18T15:38:13;-1.30;42.70
1011;DHT22;494;48.744;10.106;2022-12-18T15:40:42;-1.20;42.40
1011;DHT22;494;48.744;10.106;2022-12-18T15:43:12;-1.20;42.00
1011;DHT22;494;48.744;10.106;2022-12-18T15:45:58;-1.10;41.80
1011;DHT22;494;48.744;10.106;2022-12-18T15:48:27;-1.30;41.60
1011;DHT22;494;48.744;10.106;2022-12-18T15:50:56;-1.20;41.80
1011;DHT22;494;48.744;10.106;2022-12-18T15:53:30;-1.30;41.70
1011;DHT22;494;48.744;10.106;2022-12-18T15:56:01;-1.30;41.90
1011;DHT22;494;48.744;10.106;2022-12-18T15:58:49;-1.20;42.00
1011;DHT22;494;48.744;10.106;2022-12-18T16:01:18;-1.10;42.00
1011;DHT22;494;48.744;10.106;2022-12-18T16:03:47;-1.20;41.60
1011;DHT22;494;48.744;10.106;2022-12-18T16:06:16;-1.30;41.60
1011;DHT22;494;48.744;10.106;2022-12-18T16:08:44;-1.20;41.80
1011;DHT22;494;48.744;10.106;2022-12-18T16:11:21;-1.20;41.70
1011;DHT22;494;48.744;10.106;2022-12-18T16:14:18;-1.20;41.70
1011;DHT22;494;48.744;10.106;2022-12-18T16:16:49;-1.30;42.20
1011;DHT22;494;48.744;10.106;2022-12-18T16:19:19;-1.20;42.00
1011;DHT22;494;48.744;10.106;2022-12-18T16:21:49;-1.30;42.10
1011;DHT22;494;48.744;10.106;2022-12-18T16:24:22;-1.20;41.90
1011;DHT22;494;48.744;10.106;2022-12-18T16:26:52;-1.20;41.90
1011;DHT22;494;48.744;10.106;2022-12-18T16:29:22;-1.30;42.00
1011;DHT22;494;48.744;10.106;2022-12-18T16:31:54;-1.10;41.90
1011;DHT22;494;48.744;10.106;2022-12-18T16:34:24;-1.30;41.80
1011;DHT22;494;48.744;10.106;2022-12-18T16:36:56;-1.40;41.80
1011;DHT22;494;48.744;10.106;2022-12-18T16:39:32;-1.30;41.90
1011;DHT22;494;48.744;10.106;2022-12-18T16:42:01;-1.30;41.70
1011;DHT22;494;48.744;10.106;2022-12-18T16:44:33;-1.40;41.90
1011;DHT22;494;48.744;10.106;2022-12-18T16:47:03;-1.40;42.00
1011;DHT22;494;48.744;10.106;2022-12-18T16:49:34;-1.50;42.00
1011;DHT22;494;48.744;10.106;2022-12-18T16:52:04;-1.50;42.30
1011;DHT22;494;48.744;10.106;2022-12-18T16:54:32;-1.50;42.30
1011;DHT22;494;48.744;10.106;2022-12-18T16:57:02;-1.20;42.20